Atlantic Beach, South Carolina
Current Conditions -  °F | °C
As of 7:53 PM on Friday 24 Oct 2014 (Local Time) from KCRE Reporting Station
Clear Clear  
Wind Chill: 55°   Ceiling: Unl
Heat Index: 55°   Visibility: 10mi
Dew Point: 53°   Wind: 0mph
Humidity: 93%   Direction: NA
Pressure: 29.98"   Gusts: NA
Location:  33.8371°N, 78.6471°W
Report Text: KCRE 242353Z 00000KT 10SM CLR 13/12 A2998 RMK AO1 SLP154 T01280117 10200 20128 53007
Loading
Personal Weather Stations






























Interactive Weather Map New forecast layout! Learn more

10-Day Weather Forecast

Advertisements
Track Severe Weather on mobile